createdAt,value
2019-06-10T00:01:02.834Z,20.20
2019-06-10T00:03:27.838Z,20.10
2019-06-10T00:05:53.861Z,20.10
2019-06-10T00:08:20.860Z,20.10
2019-06-10T00:10:47.060Z,20.10
2019-06-10T00:13:14.130Z,20.10
2019-06-10T00:15:40.967Z,20.10
2019-06-10T00:18:33.426Z,20.00
2019-06-10T00:20:36.985Z,20.10
2019-06-10T00:23:05.197Z,20.20
2019-06-10T00:25:31.369Z,20.20
2019-06-10T00:27:57.903Z,20.00
2019-06-10T00:30:23.960Z,20.00
2019-06-10T00:32:51.551Z,20.00
2019-06-10T00:35:17.880Z,20.00
2019-06-10T00:37:43.938Z,19.90
2019-06-10T00:40:14.095Z,19.90
2019-06-10T00:42:38.775Z,19.80
2019-06-10T00:45:07.527Z,19.80
2019-06-10T00:47:33.365Z,19.70
2019-06-10T00:50:03.263Z,19.60
2019-06-10T00:52:27.278Z,19.60
2019-06-10T00:54:53.314Z,19.50
2019-06-10T00:57:20.905Z,19.50
2019-06-10T00:59:47.146Z,19.40
2019-06-10T01:02:14.522Z,19.40
2019-06-10T01:04:43.224Z,19.40
2019-06-10T01:07:14.740Z,19.30
2019-06-10T01:09:41.302Z,19.20
2019-06-10T01:12:07.431Z,19.10
2019-06-10T01:14:33.661Z,19.10
2019-06-10T01:17:01.279Z,19.10
2019-06-10T01:19:27.400Z,19.10
2019-06-10T01:21:53.575Z,19.10
2019-06-10T01:24:22.094Z,19.00
2019-06-10T01:26:47.502Z,19.00
2019-06-10T01:29:14.327Z,19.00
2019-06-10T01:31:41.950Z,18.90
2019-06-10T01:34:12.408Z,18.90
2019-06-10T01:36:40.650Z,18.90
2019-06-10T01:39:06.918Z,18.90
2019-06-10T01:41:33.020Z,18.90
2019-06-10T01:43:59.050Z,18.90
2019-06-10T01:46:25.047Z,18.90
2019-06-10T01:48:52.063Z,18.80
2019-06-10T01:51:21.039Z,18.80
2019-06-10T01:53:47.007Z,18.80
2019-06-10T01:56:15.425Z,18.80
2019-06-10T01:58:40.904Z,18.70
2019-06-10T02:01:30.686Z,18.70
2019-06-10T02:03:56.834Z,18.80
2019-06-10T02:06:25.769Z,18.80
2019-06-10T02:08:52.677Z,18.80
2019-06-10T02:11:23.257Z,18.80
2019-06-10T02:13:46.738Z,18.80
2019-06-10T02:16:15.348Z,18.80
2019-06-10T02:18:44.938Z,18.80
2019-06-10T02:21:11.542Z,18.80
2019-06-10T02:23:36.541Z,18.90
2019-06-10T02:26:03.071Z,18.90
2019-06-10T02:28:31.352Z,18.80
2019-06-10T02:30:57.115Z,18.80
2019-06-10T02:33:30.766Z,18.80
2019-06-10T02:35:53.802Z,18.80
2019-06-10T02:38:30.599Z,18.80
2019-06-10T02:40:48.276Z,18.90
2019-06-10T02:43:20.839Z,18.80
2019-06-10T02:45:45.912Z,18.70
2019-06-10T02:48:13.691Z,18.70
2019-06-10T02:50:54.024Z,18.60
2019-06-10T02:53:27.840Z,18.60
2019-06-10T02:55:49.271Z,18.60
2019-06-10T02:58:15.699Z,18.60
2019-06-10T03:00:48.050Z,18.60
2019-06-10T03:03:13.638Z,18.60
2019-06-10T03:05:41.055Z,18.60
2019-06-10T03:08:06.429Z,18.60
2019-06-10T03:10:36.956Z,18.60
2019-06-10T03:13:02.417Z,18.50
2019-06-10T03:15:32.184Z,18.50
2019-06-10T03:17:58.261Z,18.50
2019-06-10T03:20:25.892Z,18.50
2019-06-10T03:22:52.534Z,18.60
2019-06-10T03:25:18.691Z,18.60
2019-06-10T03:27:44.768Z,18.40
2019-06-10T03:30:16.961Z,18.30
2019-06-10T03:32:45.356Z,18.20
2019-06-10T03:35:07.293Z,18.30
2019-06-10T03:37:33.319Z,18.30
2019-06-10T03:40:02.562Z,18.30
2019-06-10T03:42:29.819Z,18.20
2019-06-10T03:44:56.514Z,18.30
2019-06-10T03:47:24.292Z,18.30
2019-06-10T03:49:53.532Z,18.30
2019-06-10T03:52:19.294Z,18.20
2019-06-10T03:54:45.612Z,18.20
2019-06-10T03:57:14.234Z,18.20
2019-06-10T03:59:42.212Z,18.20
2019-06-10T04:02:08.214Z,17.90
2019-06-10T04:04:34.236Z,18.00
2019-06-10T04:07:03.591Z,18.00
2019-06-10T04:09:28.926Z,18.10
2019-06-10T04:11:54.968Z,18.10
2019-06-10T04:14:22.420Z,18.10
2019-06-10T04:16:52.391Z,18.00
2019-06-10T04:19:17.894Z,18.00
2019-06-10T04:21:43.970Z,18.00
2019-06-10T04:24:12.654Z,17.80
2019-06-10T04:26:37.989Z,17.80
2019-06-10T04:29:03.995Z,17.70
2019-06-10T04:31:32.826Z,17.80
2019-06-10T04:33:58.438Z,17.80
2019-06-10T04:36:26.234Z,17.80
2019-06-10T04:38:52.643Z,17.90
2019-06-10T04:41:18.710Z,18.10
2019-06-10T04:43:45.064Z,18.10
2019-06-10T04:46:12.706Z,18.20
2019-06-10T04:48:42.663Z,18.20
2019-06-10T04:51:08.981Z,18.20
2019-06-10T04:53:35.011Z,18.30
2019-06-10T04:56:02.918Z,18.30
2019-06-10T04:58:30.289Z,18.30
2019-06-10T05:00:56.875Z,18.20
2019-06-10T05:03:23.820Z,18.00
2019-06-10T05:05:52.612Z,17.90
2019-06-10T05:08:19.037Z,18.00
2019-06-10T05:10:45.233Z,18.00
2019-06-10T05:13:12.012Z,18.00
2019-06-10T05:15:38.090Z,18.00
2019-06-10T05:18:04.112Z,18.00
2019-06-10T05:20:46.843Z,17.90
2019-06-10T05:22:58.055Z,18.00
2019-06-10T05:25:25.372Z,18.00
2019-06-10T05:27:52.312Z,17.90
2019-06-10T05:30:19.994Z,17.90
2019-06-10T05:32:46.080Z,17.90
2019-06-10T05:35:12.513Z,18.00
2019-06-10T05:37:38.713Z,18.10
2019-06-10T05:40:05.423Z,18.20
2019-06-10T05:42:35.616Z,18.20
2019-06-10T05:44:59.604Z,18.40
2019-06-10T05:47:27.928Z,18.50
2019-06-10T05:49:53.575Z,18.70
2019-06-10T05:52:19.562Z,18.70
2019-06-10T05:54:45.605Z,18.80
2019-06-10T05:57:12.092Z,18.80
2019-06-10T05:59:38.550Z,18.80
2019-06-10T06:02:04.848Z,18.90
2019-06-10T06:04:33.051Z,18.90
2019-06-10T06:07:02.246Z,18.80
2019-06-10T06:09:29.203Z,18.80
2019-06-10T06:11:55.349Z,18.80
2019-06-10T06:14:22.606Z,18.90
2019-06-10T06:16:48.816Z,18.90
2019-06-10T06:19:14.889Z,18.70
2019-06-10T06:21:47.107Z,18.80
2019-06-10T06:24:09.149Z,18.70
2019-06-10T06:26:38.071Z,18.60
2019-06-10T06:29:03.468Z,18.60
2019-06-10T06:31:30.799Z,18.60
2019-06-10T06:33:58.680Z,18.60
2019-06-10T06:36:24.688Z,18.70
2019-06-10T06:38:52.877Z,18.60
2019-06-10T06:41:18.884Z,18.60
2019-06-10T06:43:45.616Z,18.60
2019-06-10T06:46:13.118Z,18.60
2019-06-10T06:48:42.946Z,18.60
2019-06-10T06:51:08.762Z,18.50
2019-06-10T06:53:44.128Z,18.60
2019-06-10T06:56:03.839Z,18.70
2019-06-10T06:58:34.398Z,18.70
2019-06-10T07:01:10.278Z,18.80
2019-06-10T07:03:29.829Z,18.90
2019-06-10T07:05:56.551Z,19.00
2019-06-10T07:08:24.635Z,18.80
2019-06-10T07:10:52.474Z,18.80
2019-06-10T07:13:18.600Z,18.80
2019-06-10T07:15:46.862Z,19.00
2019-06-10T07:18:13.744Z,19.20
2019-06-10T07:20:41.636Z,19.10
2019-06-10T07:23:09.477Z,19.10
2019-06-10T07:25:37.356Z,19.10
2019-06-10T07:28:03.954Z,19.10
2019-06-10T07:30:36.951Z,19.30
2019-06-10T07:33:04.538Z,19.50
2019-06-10T07:35:32.607Z,19.60
2019-06-10T07:37:58.568Z,19.60
2019-06-10T07:40:24.612Z,19.60
2019-06-10T07:42:52.912Z,19.70
2019-06-10T07:45:18.911Z,19.70
2019-06-10T07:47:46.490Z,19.80
2019-06-10T07:50:14.466Z,19.90
2019-06-10T07:52:46.053Z,20.00
2019-06-10T07:55:12.948Z,20.10
2019-06-10T07:57:39.410Z,20.20
2019-06-10T08:00:12.098Z,20.20
2019-06-10T08:02:37.665Z,20.20
2019-06-10T08:05:04.737Z,20.30
2019-06-10T08:07:33.866Z,20.20
2019-06-10T08:10:02.855Z,20.30
2019-06-10T08:12:29.132Z,20.30
2019-06-10T08:14:55.192Z,20.40
2019-06-10T08:17:22.627Z,20.60
2019-06-10T08:19:51.152Z,20.70
2019-06-10T08:22:31.211Z,20.70
2019-06-10T08:24:48.108Z,20.40
2019-06-10T08:27:16.129Z,20.20
2019-06-10T08:29:46.187Z,20.10
2019-06-10T08:32:12.937Z,20.00
2019-06-10T08:34:40.073Z,20.00
2019-06-10T08:37:07.845Z,20.00
2019-06-10T08:39:34.186Z,20.10
2019-06-10T08:42:02.988Z,20.10
2019-06-10T08:44:28.500Z,20.10
2019-06-10T08:46:57.985Z,20.30
2019-06-10T08:49:24.571Z,20.50
2019-06-10T08:51:53.079Z,20.60
2019-06-10T08:54:23.281Z,20.60
2019-06-10T08:56:50.902Z,20.70
2019-06-10T08:59:16.796Z,20.50
2019-06-10T09:01:48.340Z,20.30
2019-06-10T09:04:13.254Z,20.50
2019-06-10T09:06:41.043Z,20.60
2019-06-10T09:09:08.078Z,20.80
2019-06-10T09:11:35.269Z,21.00
2019-06-10T09:14:02.530Z,21.10
2019-06-10T09:16:28.826Z,21.10
2019-06-10T09:18:55.500Z,21.00
2019-06-10T09:21:22.327Z,20.90
2019-06-10T09:23:56.643Z,21.00
2019-06-10T09:26:16.685Z,21.30
2019-06-10T09:28:47.178Z,21.40
2019-06-10T09:31:13.768Z,21.60
2019-06-10T09:33:42.455Z,21.60
2019-06-10T09:36:09.709Z,21.30
2019-06-10T09:38:35.785Z,21.40
2019-06-10T09:41:05.988Z,21.30
2019-06-10T09:43:30.064Z,21.30
2019-06-10T09:45:56.925Z,21.50
2019-06-10T09:48:23.565Z,21.40
2019-06-10T09:50:56.695Z,21.40
2019-06-10T09:53:32.063Z,21.50
2019-06-10T09:55:49.752Z,21.70
2019-06-10T09:58:15.237Z,21.80
2019-06-10T10:00:48.463Z,21.90
2019-06-10T10:03:13.696Z,22.00
2019-06-10T10:05:53.064Z,22.20
2019-06-10T10:08:09.143Z,22.30
2019-06-10T10:10:38.770Z,22.40
2019-06-10T10:13:05.720Z,22.40
2019-06-10T10:15:34.560Z,22.30
2019-06-10T10:18:02.439Z,22.10
2019-06-10T10:20:28.698Z,22.00
2019-06-10T10:22:55.513Z,22.10
2019-06-10T10:25:23.538Z,22.40
2019-06-10T10:27:53.120Z,22.70
2019-06-10T10:30:24.563Z,22.60
2019-06-10T10:32:52.734Z,22.70
2019-06-10T10:35:19.337Z,22.80
2019-06-10T10:37:46.397Z,22.90
2019-06-10T10:40:12.681Z,23.10
2019-06-10T10:42:45.014Z,23.10
2019-06-10T10:45:07.415Z,23.30
2019-06-10T10:47:34.780Z,23.50
2019-06-10T10:50:02.869Z,23.70
2019-06-10T10:52:28.687Z,23.60
2019-06-10T10:54:55.609Z,23.70
2019-06-10T10:57:23.233Z,23.70
2019-06-10T10:59:49.559Z,23.40
2019-06-10T11:02:19.043Z,23.40
2019-06-10T11:04:47.830Z,23.70
2019-06-10T11:07:13.243Z,24.00
2019-06-10T11:09:39.322Z,24.40
2019-06-10T11:12:05.545Z,24.60
2019-06-10T11:14:34.086Z,24.80
2019-06-10T11:17:02.754Z,24.90
2019-06-10T11:19:28.120Z,25.00
2019-06-10T11:21:54.149Z,24.90
2019-06-10T11:24:33.537Z,25.00
2019-06-10T11:26:49.884Z,25.00
2019-06-10T11:29:16.717Z,24.80
2019-06-10T11:31:42.829Z,24.20
2019-06-10T11:34:08.969Z,24.20
2019-06-10T11:36:36.894Z,24.20
2019-06-10T11:39:05.733Z,24.10
2019-06-10T11:41:32.527Z,24.00
2019-06-10T11:43:59.411Z,23.80
2019-06-10T11:46:25.520Z,23.80
2019-06-10T11:48:55.656Z,23.80
2019-06-10T11:51:23.223Z,23.80
2019-06-10T11:53:49.867Z,23.70
2019-06-10T11:56:16.321Z,23.60
2019-06-10T11:58:42.785Z,23.50
2019-06-10T12:01:12.177Z,23.40
2019-06-10T12:03:37.580Z,23.40
2019-06-10T12:06:07.631Z,23.40
2019-06-10T12:08:34.222Z,23.50
2019-06-10T12:11:02.988Z,23.60
2019-06-10T12:13:29.317Z,23.80
2019-06-10T12:16:32.745Z,24.00
2019-06-10T12:18:23.368Z,24.20
2019-06-10T12:20:49.727Z,24.40
2019-06-10T12:23:15.983Z,24.30
2019-06-10T12:25:43.672Z,24.60
2019-06-10T12:28:12.729Z,25.00
2019-06-10T12:30:37.916Z,25.40
2019-06-10T12:33:05.657Z,25.40
2019-06-10T12:35:33.412Z,25.00
2019-06-10T12:38:01.863Z,24.80
2019-06-10T12:40:27.770Z,24.70
2019-06-10T12:42:56.754Z,24.60
2019-06-10T12:45:23.506Z,24.50
2019-06-10T12:47:49.577Z,24.40
2019-06-10T12:50:15.767Z,24.20
2019-06-10T12:52:42.203Z,24.30
2019-06-10T12:55:09.783Z,24.30
2019-06-10T12:57:36.665Z,24.30
2019-06-10T13:00:20.391Z,24.20
2019-06-10T13:02:38.772Z,24.30
2019-06-10T13:05:07.044Z,24.40
2019-06-10T13:07:36.539Z,24.40
2019-06-10T13:10:04.197Z,24.40
2019-06-10T13:12:33.125Z,24.40
2019-06-10T13:14:58.308Z,24.40
2019-06-10T13:17:24.313Z,24.50
2019-06-10T13:19:50.359Z,24.50
2019-06-10T13:22:16.730Z,24.50
2019-06-10T13:24:42.880Z,24.50
2019-06-10T13:27:10.948Z,24.40
2019-06-10T13:29:37.041Z,24.30
2019-06-10T13:32:06.091Z,24.30
2019-06-10T13:34:32.415Z,24.20
2019-06-10T13:36:58.804Z,24.20
2019-06-10T13:39:27.066Z,24.20
2019-06-10T13:41:53.276Z,24.20
2019-06-10T13:44:22.828Z,24.20
2019-06-10T13:46:48.965Z,24.20
2019-06-10T13:49:15.622Z,24.20
2019-06-10T13:51:44.121Z,24.20
2019-06-10T13:54:13.939Z,24.10
2019-06-10T13:56:47.057Z,24.00
2019-06-10T13:59:11.114Z,24.00
2019-06-10T14:01:37.662Z,24.00
2019-06-10T14:04:12.757Z,24.00
2019-06-10T14:06:47.047Z,24.00
2019-06-10T14:09:12.594Z,23.80
2019-06-10T14:11:42.295Z,23.60
2019-06-10T14:14:07.702Z,23.40
2019-06-10T14:16:36.036Z,23.20
2019-06-10T14:19:05.773Z,23.30
2019-06-10T14:21:32.905Z,23.20
2019-06-10T14:23:58.317Z,23.10
2019-06-10T14:26:36.464Z,23.20
2019-06-10T14:28:52.646Z,23.20
2019-06-10T14:31:38.609Z,23.20
2019-06-10T14:33:47.034Z,23.20
2019-06-10T14:36:16.307Z,23.10
2019-06-10T14:38:42.100Z,22.70
2019-06-10T14:41:08.260Z,22.50
2019-06-10T14:43:34.351Z,22.50
2019-06-10T14:46:00.603Z,22.50
2019-06-10T14:48:26.597Z,22.40
2019-06-10T14:50:52.626Z,22.20
2019-06-10T14:53:18.726Z,22.30
2019-06-10T14:55:44.840Z,22.30
2019-06-10T14:58:13.758Z,22.50
2019-06-10T15:00:39.033Z,22.60
2019-06-10T15:03:07.340Z,22.60
2019-06-10T15:05:34.225Z,22.70
2019-06-10T15:08:00.363Z,22.60
2019-06-10T15:10:26.416Z,22.50
2019-06-10T15:12:52.896Z,22.20
2019-06-10T15:15:23.368Z,22.00
2019-06-10T15:17:52.497Z,21.90
2019-06-10T15:20:18.344Z,21.80
2019-06-10T15:22:44.315Z,21.70
2019-06-10T15:25:11.552Z,21.70
2019-06-10T15:27:38.587Z,21.60
2019-06-10T15:30:12.219Z,21.50
2019-06-10T15:32:36.239Z,21.50
2019-06-10T15:35:04.066Z,21.60
2019-06-10T15:37:32.921Z,21.60
2019-06-10T15:39:58.739Z,21.70
2019-06-10T15:42:24.804Z,21.80
2019-06-10T15:44:53.509Z,21.80
2019-06-10T15:47:20.998Z,21.70
2019-06-10T15:49:46.802Z,21.70
2019-06-10T15:52:13.914Z,21.70
2019-06-10T15:54:42.648Z,21.70
2019-06-10T15:57:23.600Z,21.80
2019-06-10T15:59:38.181Z,21.80
2019-06-10T16:02:04.513Z,21.80
2019-06-10T16:04:35.023Z,21.80
2019-06-10T16:07:02.612Z,21.90
2019-06-10T16:09:28.952Z,21.90
2019-06-10T16:11:55.054Z,21.90
2019-06-10T16:14:23.532Z,21.80
2019-06-10T16:16:52.594Z,21.90
2019-06-10T16:19:19.621Z,21.80
2019-06-10T16:21:48.489Z,21.70
2019-06-10T16:24:15.494Z,21.60
2019-06-10T16:26:43.061Z,21.70
2019-06-10T16:29:09.279Z,21.70
2019-06-10T16:31:35.351Z,21.80
2019-06-10T16:34:04.322Z,21.80
2019-06-10T16:36:32.021Z,21.90
2019-06-10T16:38:57.912Z,21.90
2019-06-10T16:41:26.422Z,21.70
2019-06-10T16:43:52.293Z,21.60
2019-06-10T16:46:20.560Z,21.50
2019-06-10T16:48:46.689Z,21.40
2019-06-10T16:51:13.454Z,21.20
2019-06-10T16:53:42.472Z,21.10
2019-06-10T16:56:12.020Z,21.00
2019-06-10T16:58:39.711Z,21.00
2019-06-10T17:01:07.662Z,20.90
2019-06-10T17:03:34.003Z,20.90
2019-06-10T17:06:02.597Z,20.70
2019-06-10T17:08:28.778Z,20.60
2019-06-10T17:10:55.699Z,20.70
2019-06-10T17:13:26.839Z,20.60
2019-06-10T17:15:53.805Z,20.60
2019-06-10T17:18:21.089Z,20.60
2019-06-10T17:20:53.453Z,20.60
2019-06-10T17:23:23.899Z,20.60
2019-06-10T17:25:53.296Z,20.50
2019-06-10T17:28:20.584Z,20.40
2019-06-10T17:30:47.358Z,20.50
2019-06-10T17:33:13.736Z,20.60
2019-06-10T17:35:43.226Z,20.60
2019-06-10T17:38:09.474Z,20.60
2019-06-10T17:40:36.691Z,20.50
2019-06-10T17:43:02.919Z,20.40
2019-06-10T17:45:29.445Z,20.30
2019-06-10T17:47:58.183Z,20.20
2019-06-10T17:50:25.328Z,20.20
2019-06-10T17:52:54.719Z,20.20
2019-06-10T17:55:23.348Z,20.20
2019-06-10T17:57:52.499Z,20.30
2019-06-10T18:00:18.931Z,20.50
2019-06-10T18:02:45.250Z,20.50
2019-06-10T18:05:12.758Z,20.50
2019-06-10T18:07:39.032Z,20.50
2019-06-10T18:10:06.079Z,20.50
2019-06-10T18:12:33.936Z,20.50
2019-06-10T18:15:00.219Z,20.50
2019-06-10T18:17:27.496Z,20.40
2019-06-10T18:19:54.581Z,20.30
2019-06-10T18:22:22.766Z,20.20
2019-06-10T18:24:48.649Z,20.20
2019-06-10T18:27:14.698Z,20.20
2019-06-10T18:29:42.620Z,20.20
2019-06-10T18:32:08.984Z,20.20
2019-06-10T18:34:37.814Z,20.20
2019-06-10T18:37:03.078Z,20.30
2019-06-10T18:39:29.375Z,20.20
2019-06-10T18:41:55.538Z,20.20
2019-06-10T18:44:26.606Z,20.10
2019-06-10T18:46:49.723Z,20.10
2019-06-10T18:49:15.779Z,20.10
2019-06-10T18:51:43.431Z,20.10
2019-06-10T18:54:12.837Z,20.00
2019-06-10T18:56:43.044Z,20.10
2019-06-10T18:59:19.731Z,20.10
2019-06-10T19:01:38.686Z,20.20
2019-06-10T19:04:04.911Z,20.30
2019-06-10T19:06:33.346Z,20.30
2019-06-10T19:08:59.135Z,20.20
2019-06-10T19:11:25.295Z,20.20
2019-06-10T19:13:52.929Z,20.30
2019-06-10T19:16:19.122Z,20.20
2019-06-10T19:18:45.152Z,20.20
2019-06-10T19:21:12.863Z,20.30
2019-06-10T19:23:39.769Z,20.30
2019-06-10T19:26:07.183Z,20.20
2019-06-10T19:28:35.328Z,20.10
2019-06-10T19:31:02.375Z,20.10
2019-06-10T19:33:28.667Z,20.10
2019-06-10T19:35:54.799Z,20.10
2019-06-10T19:38:23.006Z,20.00
2019-06-10T19:40:48.786Z,19.90
2019-06-10T19:43:14.806Z,19.60
2019-06-10T19:45:42.570Z,19.50
2019-06-10T19:48:08.799Z,19.60
2019-06-10T19:50:36.121Z,19.70
2019-06-10T19:53:03.068Z,19.70
2019-06-10T19:55:29.137Z,19.80
2019-06-10T19:57:55.209Z,19.80
2019-06-10T20:00:25.220Z,19.80
2019-06-10T20:02:52.426Z,19.80
2019-06-10T20:05:20.654Z,19.80
2019-06-10T20:07:50.079Z,19.60
2019-06-10T20:10:15.204Z,19.50
2019-06-10T20:12:44.856Z,19.40
2019-06-10T20:15:22.633Z,19.40
2019-06-10T20:17:48.390Z,19.30
2019-06-10T20:20:14.682Z,19.30
2019-06-10T20:22:43.603Z,19.40
2019-06-10T20:25:09.217Z,19.40
2019-06-10T20:27:35.541Z,19.40
2019-06-10T20:30:21.625Z,19.30
2019-06-10T20:32:35.164Z,19.30
2019-06-10T20:35:02.966Z,19.20
2019-06-10T20:37:29.196Z,19.00
2019-06-10T20:39:55.320Z,19.00
2019-06-10T20:42:23.082Z,19.00
2019-06-10T20:44:49.324Z,18.80
2019-06-10T20:47:15.369Z,18.80
2019-06-10T20:49:44.564Z,18.80
2019-06-10T20:52:12.243Z,18.70
2019-06-10T20:54:38.225Z,18.80
2019-06-10T20:57:04.434Z,18.80
2019-06-10T20:59:33.114Z,18.80
2019-06-10T21:02:03.054Z,18.80
2019-06-10T21:04:29.523Z,18.80
2019-06-10T21:06:55.750Z,18.80
2019-06-10T21:09:23.846Z,18.90
2019-06-10T21:11:51.313Z,18.80
2019-06-10T21:14:17.858Z,18.80
2019-06-10T21:16:44.302Z,18.70
2019-06-10T21:19:10.420Z,18.70
2019-06-10T21:21:36.439Z,18.70
2019-06-10T21:24:02.528Z,18.60
2019-06-10T21:26:28.566Z,18.50
2019-06-10T21:28:55.222Z,18.50
2019-06-10T21:31:21.391Z,18.40
2019-06-10T21:33:49.532Z,18.40
2019-06-10T21:36:18.016Z,18.30
2019-06-10T21:38:46.591Z,18.20
2019-06-10T21:41:12.407Z,18.20
2019-06-10T21:43:41.477Z,18.10
2019-06-10T21:46:07.775Z,18.20
2019-06-10T21:48:35.150Z,18.20
2019-06-10T21:51:01.159Z,18.30
2019-06-10T21:53:27.201Z,18.40
2019-06-10T21:55:53.980Z,18.30
2019-06-10T21:58:22.523Z,18.40
2019-06-10T22:01:03.275Z,18.30
2019-06-10T22:03:17.785Z,18.30
2019-06-10T22:05:44.571Z,18.30
2019-06-10T22:08:12.623Z,18.30
2019-06-10T22:10:39.034Z,18.30
2019-06-10T22:13:05.475Z,18.30
2019-06-10T22:15:33.409Z,18.20
2019-06-10T22:18:02.004Z,18.10
2019-06-10T22:20:27.418Z,18.00
2019-06-10T22:22:55.104Z,18.00
2019-06-10T22:25:22.367Z,18.10
2019-06-10T22:27:48.520Z,18.10
2019-06-10T22:30:14.841Z,18.20
2019-06-10T22:32:42.962Z,18.10
2019-06-10T22:35:08.977Z,18.20
2019-06-10T22:37:35.020Z,18.30
2019-06-10T22:40:03.251Z,18.30
2019-06-10T22:42:29.603Z,18.40
2019-06-10T22:44:57.903Z,18.40
2019-06-10T22:47:23.798Z,18.40
2019-06-10T22:49:50.074Z,18.30
2019-06-10T22:52:16.151Z,18.30
2019-06-10T22:54:42.996Z,18.40
2019-06-10T22:57:09.212Z,18.40
2019-06-10T22:59:35.216Z,18.40
2019-06-10T23:02:03.095Z,18.50
2019-06-10T23:04:29.235Z,18.40
2019-06-10T23:06:56.635Z,18.40
2019-06-10T23:09:23.340Z,18.50
2019-06-10T23:11:51.110Z,18.60
2019-06-10T23:14:18.355Z,18.60
2019-06-10T23:16:44.431Z,18.60
2019-06-10T23:19:13.126Z,18.60
2019-06-10T23:21:42.290Z,18.60
2019-06-10T23:24:07.980Z,18.50
2019-06-10T23:26:36.201Z,18.50
2019-06-10T23:29:03.278Z,18.50
2019-06-10T23:31:29.486Z,18.40
2019-06-10T23:33:56.498Z,18.40
2019-06-10T23:36:23.499Z,18.40
2019-06-10T23:38:50.616Z,18.20
2019-06-10T23:41:16.796Z,18.20
2019-06-10T23:43:45.068Z,18.30
2019-06-10T23:46:12.095Z,18.40
2019-06-10T23:48:38.506Z,18.40
2019-06-10T23:51:05.154Z,18.30
2019-06-10T23:53:32.852Z,18.30
2019-06-10T23:56:00.094Z,18.10
2019-06-10T23:58:26.850Z,18.10
